Latest Weather Observations for Mount Lofty

IDS60801

Issued at 1:02 am CST Tuesday 28 April 2015 (issued every 30 minutes, with the page automatically refreshed every 10 minutes)

About weather observations | Map of weather stations | Latest weather observations for SA | Other Formats
Station Details ID: 023842 Name: MOUNT LOFTY Lat: -34.98 Lon: 138.71 Height: 685.0 m
Data from the previous 72 hours. | See also: Recent months at Mount Lofty
Date/Time
CST
Temp
°C
App
Temp
°C
Dew
Point
Rel
Hum
%
Delta-T
°C
Wind Press
QNH
hPa
Press
MSL
hPa
Rain
since 9 am
mm
Dir
 
Spd
km/h
Gust
km/h
Spd
kts
Gust
kts
28/01:00am 7.3 5.3 6.2 93 0.5 SSE 6 15 3 8 - - 0.0
28/12:30am 7.7 5.8 6.6 93 0.5 S 6 9 3 5 - - 0.0
28/12:00am 7.5 5.5 6.3 92 0.6 S 6 9 3 5 - - 0.0
 
Date/Time
CST
Temp
°C
App
Temp
°C
Dew
Point
Rel
Hum
%
Delta-T
°C
Wind Press
QNH
hPa
Press
MSL
hPa
Rain
since 9 am
mm
Dir
 
Spd
km/h
Gust
km/h
Spd
kts
Gust
kts
27/11:30pm 7.4 5.4 6.3 93 0.5 SSE 6 11 3 6 - - 0.0
27/11:00pm 7.3 5.3 6.2 93 0.5 S 6 9 3 5 - - 0.0
27/10:30pm 7.5 5.5 6.1 91 0.7 SSE 6 9 3 5 - - 0.0
27/10:00pm 7.4 5.3 6.0 91 0.7 SSE 6 11 3 6 - - 0.0
27/09:30pm 7.6 5.7 6.7 94 0.4 SSE 6 13 3 7 - - 0.0
27/09:00pm 7.6 5.6 6.4 92 0.6 S 6 11 3 6 - - 0.0
27/08:30pm 7.4 5.6 5.5 88 0.9 SSE 4 9 2 5 - - 0.0
27/08:00pm 8.0 5.8 5.1 82 1.3 S 6 11 3 6 - - 0.0
27/07:30pm 8.0 5.7 4.9 81 1.4 S 6 9 3 5 - - 0.0
27/07:00pm 8.1 5.7 4.1 76 1.8 S 6 11 3 6 - - 0.0
27/06:30pm 8.0 5.8 5.1 82 1.3 SSE 6 11 3 6 - - 0.0
27/06:00pm 8.7 6.5 6.2 84 1.2 S 7 13 4 7 - - 0.0
27/05:30pm 9.1 7.5 6.2 82 1.4 S 4 9 2 5 - - 0.0
27/05:00pm 9.8 7.6 5.2 73 2.2 SSE 6 17 3 9 - - 0.0
27/04:30pm 9.8 7.6 5.2 73 2.2 SSW 6 11 3 6 - - 0.0
27/04:00pm 11.0 8.9 6.0 71 2.4 SSW 6 11 3 6 - - 0.0
27/03:30pm 10.7 8.8 6.6 76 2.0 SW 6 9 3 5 - - 0.0
27/03:00pm 10.6 8.8 7.3 80 1.6 SW 6 19 3 10 - - 0.0
27/02:30pm 10.9 8.8 6.8 76 2.0 SSW 7 17 4 9 - - 0.0
27/02:00pm 10.5 8.7 7.2 80 1.6 SW 6 11 3 6 - - 0.0
27/01:30pm 10.8 8.9 6.6 75 2.1 SSE 6 13 3 7 - - 0.0
27/01:00pm 10.8 9.0 7.3 79 1.7 SW 6 9 3 5 - - 0.0
27/12:30pm 10.7 8.7 6.1 73 2.2 S 6 13 3 7 - - 0.0
27/12:00pm 10.2 8.0 6.2 76 1.9 SSW 7 13 4 7 - - 0.0
27/11:30am 9.8 7.6 6.2 78 1.7 S 7 15 4 8 - - 0.0
27/11:00am 9.4 7.5 6.5 82 1.4 S 6 13 3 7 - - 0.0
27/10:30am 9.6 7.4 6.3 80 1.6 SW 7 15 4 8 - - 0.0
27/10:00am 9.5 7.4 5.9 78 1.7 SW 6 11 3 6 - - 0.0
27/09:30am 8.9 7.4 6.7 86 1.1 SW 4 11 2 6 - - 0.0
27/09:00am 8.1 6.1 6.2 88 0.9 SSW 6 9 3 5 - - 0.6
27/08:30am 8.2 6.1 6.0 86 1.0 SW 6 11 3 6 - - 0.6
27/08:00am 7.5 5.7 5.6 88 0.9 SW 4 9 2 5 - - 0.6
27/07:30am 7.1 4.7 5.4 89 0.8 SSW 7 17 4 9 - - 0.6
27/07:00am 7.6 5.6 4.4 80 1.5 SW 4 7 2 4 - - 0.6
27/06:30am 7.6 5.3 4.6 81 1.4 SW 6 11 3 6 - - 0.6
27/06:00am 7.3 5.6 5.8 90 0.7 SSW 4 9 2 5 - - 0.6
27/05:30am 7.3 5.2 5.6 89 0.8 S 6 9 3 5 - - 0.6
27/05:00am 7.0 4.8 5.5 90 0.7 SW 6 11 3 6 - - 0.6
27/04:30am 7.5 5.2 5.0 84 1.2 SW 6 9 3 5 - - 0.6
27/04:00am 7.7 5.6 3.7 76 1.8 SSW 4 7 2 4 - - 0.6
27/03:30am 7.6 5.1 4.0 78 1.6 SSW 6 13 3 7 - - 0.6
27/03:00am 7.3 4.9 4.3 81 1.4 SW 6 13 3 7 - - 0.6
27/02:30am 7.5 5.3 3.4 75 1.8 SSW 4 7 2 4 - - 0.6
27/02:00am 7.4 5.2 3.5 76 1.7 S 4 9 2 5 - - 0.6
27/01:30am 7.5 4.9 3.4 75 1.8 SSW 6 9 3 5 - - 0.6
27/01:00am 7.5 4.9 3.4 75 1.8 SSW 6 11 3 6 - - 0.6
27/12:30am 7.7 5.2 3.6 75 1.8 SSW 6 13 3 7 - - 0.6
27/12:00am 7.5 5.4 3.7 77 1.7 S 4 9 2 5 - - 0.6
 
Date/Time
CST
Temp
°C
App
Temp
°C
Dew
Point
Rel
Hum
%
Delta-T
°C
Wind Press
QNH
hPa
Press
MSL
hPa
Rain
since 9 am
mm
Dir
 
Spd
km/h
Gust
km/h
Spd
kts
Gust
kts
26/11:30pm 7.5 5.3 3.2 74 1.9 SSW 4 11 2 6 - - 0.6
26/11:00pm 7.6 5.5 4.0 78 1.6 SSW 4 13 2 7 - - 0.6
26/10:30pm 7.7 5.2 3.9 77 1.7 S 6 11 3 6 - - 0.6
26/10:00pm 7.5 5.8 3.9 78 1.6 SSW 2 6 1 3 - - 0.6
26/09:30pm 7.5 5.4 3.7 77 1.7 SSW 4 9 2 5 - - 0.6
26/09:00pm 7.7 5.3 4.1 78 1.6 SSW 6 9 3 5 - - 0.6
26/08:30pm 7.7 6.1 6.5 92 0.6 SW 4 9 2 5 - - 0.6
26/08:00pm 7.8 5.8 6.4 91 0.7 SSW 6 11 3 6 - - 0.6
26/07:30pm 7.8 5.8 6.4 91 0.7 SW 6 11 3 6 - - 0.6
26/07:00pm 8.0 5.9 6.0 87 0.9 SSW 6 15 3 8 - - 0.6
26/06:30pm 8.1 6.4 5.9 86 1.0 S 4 9 2 5 - - 0.4
26/06:00pm 8.3 6.2 5.6 83 1.3 SSW 6 11 3 6 - - 0.4
26/05:30pm 8.4 6.5 5.0 79 1.6 SW 4 13 2 7 - - 0.4
26/05:00pm 8.6 6.9 5.9 83 1.3 S 4 7 2 4 - - 0.4
26/04:30pm 8.8 7.1 6.1 83 1.3 S 4 9 2 5 - - 0.4
26/04:00pm 9.1 6.9 5.5 78 1.7 SSW 6 13 3 7 - - 0.4
26/03:30pm 9.6 7.3 5.8 77 1.8 SSW 7 20 4 11 - - 0.4
26/03:00pm 9.8 8.1 7.4 85 1.2 S 6 11 3 6 - - 0.4
26/02:30pm 9.4 7.9 8.3 93 0.6 S 6 11 3 6 - - 0.4
26/02:00pm 8.8 6.9 7.6 92 0.6 S 7 19 4 10 - - 0.4
26/01:30pm 9.8 8.2 8.9 94 0.5 SSE 7 19 4 10 - - 0.4
26/01:00pm 8.9 6.8 8.1 95 0.4 S 9 20 5 11 - - 0.4
26/12:30pm 10.4 9.1 9.3 93 0.6 SSW 6 13 3 7 - - 0.4
26/12:00pm 8.7 6.5 7.8 94 0.4 S 9 24 5 13 - - 0.4
26/11:30am 9.9 8.5 9.0 94 0.5 S 6 13 3 7 - - 0.2
26/11:00am 8.9 7.2 8.5 97 0.2 SSW 7 17 4 9 - - 0.2
26/10:30am 8.6 6.9 8.2 97 0.2 SW 7 13 4 7 - - 0.2
26/10:00am 9.6 8.3 9.3 98 0.2 SSW 6 17 3 9 - - 0.0
26/09:30am 8.5 6.9 8.2 98 0.1 SSE 6 17 3 9 - - 0.0
26/09:00am 7.8 5.9 7.5 98 0.1 SSE 7 17 4 9 - - 10.2
26/08:30am 7.7 5.8 7.6 99 0.0 S 7 13 4 7 - - 10.2
26/08:00am 7.3 5.3 7.0 98 0.1 S 7 20 4 11 - - 10.2
26/07:30am 7.2 5.3 6.9 98 0.1 SSE 6 13 3 7 - - 10.0
26/07:00am 7.1 4.7 6.8 98 0.1 S 9 20 5 11 - - 10.0
26/06:30am 7.1 5.0 6.8 98 0.1 S 7 19 4 10 - - 10.0
26/06:00am 7.1 4.7 6.8 98 0.1 SSE 9 17 5 9 - - 10.0
26/05:30am 7.2 4.4 6.9 98 0.1 S 11 20 6 11 - - 10.0
26/05:00am 7.2 4.4 6.9 98 0.1 S 11 20 6 11 - - 9.8
26/04:30am 7.0 4.9 6.7 98 0.1 S 7 17 4 9 - - 9.8
26/04:00am 7.0 4.9 6.7 98 0.1 S 7 15 4 8 - - 9.8
26/03:30am 6.8 4.3 6.5 98 0.1 S 9 17 5 9 - - 9.8
26/03:00am 6.8 4.7 6.5 98 0.1 S 7 13 4 7 - - 9.8
26/02:30am 6.9 4.8 6.6 98 0.1 S 7 17 4 9 - - 9.8
26/02:00am 6.8 4.6 6.4 97 0.2 S 7 17 4 9 - - 9.6
26/01:30am 6.7 5.0 6.0 95 0.3 S 4 7 2 4 - - 9.6
26/01:00am 7.0 4.7 5.9 93 0.5 SSE 7 17 4 9 - - 9.6
26/12:30am 6.7 4.5 6.1 96 0.3 S 7 15 4 8 - - 9.6
26/12:00am 6.9 5.0 6.6 98 0.1 SSW 6 11 3 6 - - 9.6
 
Date/Time
CST
Temp
°C
App
Temp
°C
Dew
Point
Rel
Hum
%
Delta-T
°C
Wind Press
QNH
hPa
Press
MSL
hPa
Rain
since 9 am
mm
Dir
 
Spd
km/h
Gust
km/h
Spd
kts
Gust
kts
25/11:30pm 7.4 5.0 7.1 98 0.1 SSW 9 19 5 10 - - 9.6
25/11:00pm 7.8 5.9 7.5 98 0.1 SSW 7 17 4 9 - - 9.6
25/10:30pm 7.9 5.6 7.6 98 0.1 S 9 20 5 11 - - 9.6
25/10:00pm 8.1 6.3 7.8 98 0.1 SSW 7 17 4 9 - - 9.6
25/09:30pm 7.9 5.3 7.6 98 0.1 S 11 26 6 14 - - 9.6
25/09:00pm 8.0 5.4 7.7 98 0.1 S 11 20 6 11 - - 9.6
25/08:30pm 8.1 5.1 7.8 98 0.1 S 13 32 7 17 - - 9.6
25/08:00pm 8.2 6.4 7.9 98 0.1 S 7 26 4 14 - - 9.4
25/07:30pm 8.3 6.1 8.0 98 0.1 S 9 24 5 13 - - 9.0
25/07:00pm 8.4 5.9 8.1 98 0.1 S 11 20 6 11 - - 8.8
25/06:30pm 8.6 6.1 8.3 98 0.2 SSE 11 22 6 12 - - 8.6
25/06:00pm 8.7 6.6 8.4 98 0.2 S 9 20 5 11 - - 8.4
25/05:30pm 8.8 6.0 8.5 98 0.2 S 13 30 7 16 - - 7.6
25/05:00pm 9.0 6.6 8.6 97 0.2 SSE 11 28 6 15 - - 7.6
25/04:30pm 9.4 7.1 8.9 97 0.3 SSE 11 22 6 12 - - 7.4
25/04:00pm 9.5 6.9 9.2 98 0.2 S 13 26 7 14 - - 7.4
25/03:30pm 9.7 6.7 9.4 98 0.2 SSE 15 37 8 20 - - 7.2
25/03:00pm 9.5 6.9 9.2 98 0.2 SSE 13 26 7 14 - - 7.2
25/02:30pm 9.7 8.3 9.4 98 0.2 SSW 7 19 4 10 - - 3.0
25/02:00pm 9.3 7.8 9.0 98 0.2 SW 7 17 4 9 - - 2.6
25/01:30pm 9.0 7.0 8.7 98 0.2 WSW 9 17 5 9 - - 2.4
25/01:00pm 8.8 6.7 8.2 96 0.3 WSW 9 19 5 10 - - 2.2
25/12:30pm 8.8 6.3 8.0 95 0.4 W 11 20 6 11 - - 2.0
25/12:00pm 8.8 6.9 7.7 93 0.5 WSW 7 20 4 11 - - 2.0
25/11:30am 9.4 7.9 9.1 98 0.2 WSW 7 13 4 7 - - 1.8
25/11:00am 8.6 6.7 7.7 94 0.4 W 7 15 4 8 - - 0.2
25/10:30am 8.6 7.0 8.0 96 0.3 SW 6 17 3 9 - - 0.2
25/10:00am 8.0 6.3 7.7 98 0.1 SW 6 13 3 7 - - 0.2
25/09:30am 7.3 5.3 7.0 98 0.1 SSW 7 15 4 8 - - 0.0
25/09:00am 7.8 5.9 7.7 99 0.0 S 7 20 4 11 - - 30.6
25/08:30am 7.1 5.1 7.0 99 0.0 SE 7 20 4 11 - - 30.6
25/08:00am 6.5 4.3 6.4 99 0.0 SSE 7 24 4 13 - - 30.6
25/07:30am 5.8 2.7 5.7 99 0.0 ESE 11 24 6 13 - - 30.6
25/07:00am 5.2 2.0 5.1 99 0.0 SE 11 24 6 13 - - 30.6
25/06:30am 5.1 1.5 5.0 99 0.0 SE 13 28 7 15 - - 30.6
25/06:00am 5.2 2.0 5.1 99 0.0 SE 11 28 6 15 - - 30.6
25/05:30am 4.9 0.9 4.8 99 0.0 SSE 15 44 8 24 - - 30.6
25/05:00am 5.4 2.2 5.3 99 0.0 SSE 11 24 6 13 - - 30.6
25/04:30am 5.2 2.0 5.1 99 0.0 SE 11 32 6 17 - - 30.6
25/04:00am 5.1 2.6 5.0 99 0.0 SE 7 19 4 10 - - 30.6
25/03:30am 5.3 2.9 5.2 99 0.0 SE 7 24 4 13 - - 30.6
25/03:00am 5.3 3.5 5.2 99 0.0 SE 4 11 2 6 - - 30.6
25/02:30am 5.8 3.7 5.7 99 0.0 SE 6 9 3 5 - - 30.6
25/02:00am 6.2 5.3 6.1 99 0.0 CALM 0 4 0 2 - - 30.6
25/01:30am 6.1 4.4 6.0 99 0.0 WNW 4 6 2 3 - - 30.2

Other Formats:

Comma delimited format used in spreadsheet applications
http://www.bom.gov.au/fwo/IDS60801/IDS60801.95678.axf

JavaScript Object Notation format (JSON) in row-major order
http://www.bom.gov.au/fwo/IDS60801/IDS60801.95678.json